createdAt,value
2018-12-14T00:00:43.333Z,23.60
2018-12-14T00:01:43.315Z,25.30
2018-12-14T00:02:43.293Z,23.50
2018-12-14T00:03:43.272Z,23.30
2018-12-14T00:04:43.244Z,24.00
2018-12-14T00:05:43.244Z,25.80
2018-12-14T00:06:43.231Z,22.80
2018-12-14T00:07:43.173Z,24.80
2018-12-14T00:08:43.149Z,23.50
2018-12-14T00:09:43.123Z,23.50
2018-12-14T00:10:43.100Z,23.20
2018-12-14T00:11:45.707Z,24.40
2018-12-14T00:12:43.074Z,23.50
2018-12-14T00:13:43.038Z,23.20
2018-12-14T00:14:43.004Z,23.30
2018-12-14T00:15:42.984Z,23.80
2018-12-14T00:16:42.963Z,24.20
2018-12-14T00:17:42.941Z,26.10
2018-12-14T00:18:42.945Z,24.00
2018-12-14T00:19:42.893Z,24.50
2018-12-14T00:20:42.865Z,25.10
2018-12-14T00:21:42.842Z,25.10
2018-12-14T00:22:42.836Z,26.80
2018-12-14T00:23:42.798Z,25.30
2018-12-14T00:24:42.786Z,24.90
2018-12-14T00:25:42.746Z,26.40
2018-12-14T00:26:42.722Z,25.80
2018-12-14T00:27:42.701Z,24.90
2018-12-14T00:28:42.675Z,26.10
2018-12-14T00:29:42.673Z,26.30
2018-12-14T00:30:42.629Z,24.40
2018-12-14T00:31:42.616Z,24.00
2018-12-14T00:32:42.586Z,25.00
2018-12-14T00:33:42.581Z,26.20
2018-12-14T00:34:42.550Z,25.00
2018-12-14T00:35:42.533Z,24.10
2018-12-14T00:36:42.492Z,26.70
2018-12-14T00:37:42.472Z,24.50
2018-12-14T00:38:42.450Z,24.70
2018-12-14T00:39:42.417Z,24.20
2018-12-14T00:40:42.400Z,24.90
2018-12-14T00:41:42.392Z,24.90
2018-12-14T00:42:42.351Z,24.40
2018-12-14T00:43:42.323Z,24.40
2018-12-14T00:44:42.305Z,25.00
2018-12-14T00:45:42.298Z,24.40
2018-12-14T00:46:42.258Z,25.00
2018-12-14T00:47:42.309Z,26.30
2018-12-14T00:48:42.214Z,25.70
2018-12-14T00:49:42.189Z,25.60
2018-12-14T00:50:42.163Z,26.40
2018-12-14T00:51:42.138Z,26.40
2018-12-14T00:52:42.146Z,26.50
2018-12-14T00:53:42.095Z,27.50
2018-12-14T00:54:42.068Z,24.60
2018-12-14T00:55:42.058Z,25.20
2018-12-14T00:56:42.020Z,24.90
2018-12-14T00:57:42.016Z,25.50
2018-12-14T00:58:41.991Z,25.40
2018-12-14T00:59:41.953Z,25.30
2018-12-14T01:00:41.929Z,25.70
2018-12-14T01:01:41.906Z,25.20
2018-12-14T01:02:41.897Z,26.50
2018-12-14T01:03:41.876Z,24.10
2018-12-14T01:04:41.834Z,23.70
2018-12-14T01:05:41.813Z,24.80
2018-12-14T01:06:41.789Z,24.10
2018-12-14T01:07:41.768Z,23.70
2018-12-14T01:08:41.746Z,25.00
2018-12-14T01:09:41.736Z,24.20
2018-12-14T01:10:41.702Z,24.50
2018-12-14T01:11:41.669Z,23.90
2018-12-14T01:12:41.646Z,25.90
2018-12-14T01:13:41.641Z,23.60
2018-12-14T01:14:41.613Z,23.60
2018-12-14T01:15:41.572Z,23.20
2018-12-14T01:16:41.549Z,24.50
2018-12-14T01:17:41.527Z,24.10
2018-12-14T01:18:41.502Z,23.20
2018-12-14T01:19:41.498Z,22.80
2018-12-14T01:20:41.463Z,23.40
2018-12-14T01:21:41.457Z,23.50
2018-12-14T01:22:41.411Z,23.20
2018-12-14T01:23:41.387Z,23.50
2018-12-14T01:24:41.394Z,23.10
2018-12-14T01:25:41.336Z,22.80
2018-12-14T01:26:41.313Z,23.60
2018-12-14T01:27:41.296Z,24.00
2018-12-14T01:28:41.270Z,23.90
2018-12-14T01:29:41.246Z,22.40
2018-12-14T01:30:41.241Z,22.30
2018-12-14T01:31:41.195Z,22.40
2018-12-14T01:32:41.197Z,23.10
2018-12-14T01:33:41.154Z,23.90
2018-12-14T01:34:41.126Z,23.00
2018-12-14T01:35:41.123Z,24.10
2018-12-14T01:36:41.084Z,23.70
2018-12-14T01:37:41.071Z,24.10
2018-12-14T01:38:41.061Z,24.40
2018-12-14T01:39:41.012Z,24.90
2018-12-14T01:40:40.986Z,23.90
2018-12-14T01:41:40.979Z,23.30
2018-12-14T01:42:40.945Z,24.00
2018-12-14T01:43:40.938Z,23.70
2018-12-14T01:44:40.897Z,24.70
2018-12-14T01:45:40.874Z,24.30
2018-12-14T01:46:40.851Z,22.70
2018-12-14T01:47:40.840Z,23.20
2018-12-14T01:48:40.818Z,24.80
2018-12-14T01:49:40.779Z,21.80
2018-12-14T01:50:40.774Z,22.80
2018-12-14T01:51:40.754Z,22.70
2018-12-14T01:52:40.715Z,22.40
2018-12-14T01:53:40.685Z,21.60
2018-12-14T01:54:40.660Z,21.50
2018-12-14T01:55:40.633Z,22.20
2018-12-14T01:56:40.631Z,22.00
2018-12-14T01:57:40.598Z,21.90
2018-12-14T01:58:40.567Z,22.00
2018-12-14T01:59:40.541Z,21.20
2018-12-14T02:00:40.519Z,21.80
2018-12-14T02:01:40.492Z,22.40
2018-12-14T02:02:40.493Z,22.20
2018-12-14T02:03:40.450Z,22.20
2018-12-14T02:04:40.440Z,23.00
2018-12-14T02:05:40.399Z,22.80
2018-12-14T02:06:40.386Z,21.80
2018-12-14T02:07:40.381Z,22.80
2018-12-14T02:08:40.330Z,23.00
2018-12-14T02:09:40.315Z,22.40
2018-12-14T02:10:40.280Z,21.60
2018-12-14T02:11:40.315Z,22.60
2018-12-14T02:12:40.237Z,21.30
2018-12-14T02:13:40.229Z,23.30
2018-12-14T02:14:40.190Z,21.70
2018-12-14T02:15:40.168Z,21.80
2018-12-14T02:16:40.141Z,22.70
2018-12-14T02:17:40.118Z,23.30
2018-12-14T02:18:40.094Z,22.30
2018-12-14T02:19:40.094Z,22.80
2018-12-14T02:20:40.051Z,22.70
2018-12-14T02:21:40.029Z,22.00
2018-12-14T02:22:39.996Z,21.80
2018-12-14T02:23:40.055Z,22.40
2018-12-14T02:24:39.955Z,22.60
2018-12-14T02:25:39.931Z,22.60
2018-12-14T02:26:39.907Z,22.70
2018-12-14T02:27:39.887Z,22.40
2018-12-14T02:28:39.883Z,23.30
2018-12-14T02:29:39.852Z,22.10
2018-12-14T02:30:39.817Z,22.40
2018-12-14T02:31:39.810Z,22.20
2018-12-14T02:32:39.767Z,22.30
2018-12-14T02:33:39.743Z,23.20
2018-12-14T02:34:39.720Z,22.20
2018-12-14T02:35:39.715Z,23.10
2018-12-14T02:36:39.679Z,22.40
2018-12-14T02:37:39.655Z,22.70
2018-12-14T02:38:39.628Z,22.70
2018-12-14T02:39:39.612Z,21.60
2018-12-14T02:40:39.580Z,22.30
2018-12-14T02:41:39.570Z,21.30
2018-12-14T02:42:39.536Z,21.90
2018-12-14T02:43:39.510Z,22.40
2018-12-14T02:44:39.487Z,23.10
2018-12-14T02:45:39.464Z,23.90
2018-12-14T02:46:39.466Z,23.70
2018-12-14T02:47:39.415Z,21.30
2018-12-14T02:48:39.391Z,21.90
2018-12-14T02:49:39.926Z,22.10
2018-12-14T02:50:39.352Z,22.50
2018-12-14T02:51:39.321Z,22.10
2018-12-14T02:52:39.319Z,22.50
2018-12-14T02:53:39.274Z,21.80
2018-12-14T02:54:39.259Z,23.20
2018-12-14T02:55:39.229Z,22.70
2018-12-14T02:56:39.222Z,21.90
2018-12-14T02:57:39.193Z,21.50
2018-12-14T02:58:39.152Z,21.80
2018-12-14T02:59:39.139Z,21.40
2018-12-14T03:00:39.120Z,23.30
2018-12-14T03:01:39.091Z,21.60
2018-12-14T03:02:39.089Z,21.30
2018-12-14T03:03:39.037Z,21.80
2018-12-14T03:04:39.016Z,21.50
2018-12-14T03:05:38.993Z,21.60
2018-12-14T03:06:38.965Z,21.80
2018-12-14T03:07:38.945Z,20.90
2018-12-14T03:08:38.942Z,20.90
2018-12-14T03:09:38.904Z,20.90
2018-12-14T03:10:38.877Z,21.00
2018-12-14T03:11:38.853Z,21.70
2018-12-14T03:12:38.829Z,22.10
2018-12-14T03:13:38.829Z,21.10
2018-12-14T03:14:38.790Z,21.20
2018-12-14T03:15:38.757Z,20.10
2018-12-14T03:16:38.736Z,23.50
2018-12-14T03:17:38.711Z,22.90
2018-12-14T03:18:38.705Z,21.20
2018-12-14T03:19:38.661Z,22.40
2018-12-14T03:20:38.644Z,21.10
2018-12-14T03:21:38.636Z,21.40
2018-12-14T03:22:38.593Z,20.90
2018-12-14T03:23:38.602Z,21.90
2018-12-14T03:24:38.547Z,21.30
2018-12-14T03:25:38.525Z,21.10
2018-12-14T03:26:38.495Z,21.60
2018-12-14T03:27:38.474Z,21.30
2018-12-14T03:28:38.453Z,21.00
2018-12-14T03:29:38.460Z,20.50
2018-12-14T03:30:38.417Z,22.10
2018-12-14T03:31:38.384Z,20.70
2018-12-14T03:32:38.361Z,20.90
2018-12-14T03:33:38.333Z,21.40
2018-12-14T03:34:38.307Z,20.80
2018-12-14T03:35:38.302Z,20.60
2018-12-14T03:36:38.264Z,21.00
2018-12-14T03:37:38.239Z,21.40
2018-12-14T03:38:38.215Z,21.00
2018-12-14T03:39:38.196Z,22.10
2018-12-14T03:40:38.186Z,21.10
2018-12-14T03:41:38.151Z,21.80
2018-12-14T03:42:38.122Z,20.60
2018-12-14T03:43:38.123Z,21.50
2018-12-14T03:44:38.074Z,20.30
2018-12-14T03:45:38.110Z,23.00
2018-12-14T03:46:38.031Z,20.70
2018-12-14T03:47:38.011Z,20.80
2018-12-14T03:48:37.978Z,20.70
2018-12-14T03:49:37.956Z,21.40
2018-12-14T03:50:37.928Z,21.80
2018-12-14T03:51:37.942Z,22.10
2018-12-14T03:52:37.882Z,20.20
2018-12-14T03:53:37.866Z,21.50
2018-12-14T03:54:37.838Z,21.90
2018-12-14T03:55:37.833Z,21.30
2018-12-14T03:56:37.810Z,23.00
2018-12-14T03:57:37.773Z,21.40
2018-12-14T03:58:37.746Z,22.70
2018-12-14T03:59:37.719Z,21.00
2018-12-14T04:00:37.730Z,23.20
2018-12-14T04:01:37.676Z,23.00
2018-12-14T04:02:37.676Z,21.90
2018-12-14T04:03:37.627Z,22.30
2018-12-14T04:04:37.604Z,20.70
2018-12-14T04:05:37.604Z,21.30
2018-12-14T04:06:37.561Z,22.00
2018-12-14T04:07:37.534Z,21.20
2018-12-14T04:08:37.508Z,21.40
2018-12-14T04:09:37.489Z,20.30
2018-12-14T04:10:37.463Z,21.30
2018-12-14T04:11:37.466Z,21.40
2018-12-14T04:12:41.533Z,19.50
2018-12-14T04:13:37.404Z,19.30
2018-12-14T04:14:37.385Z,19.30
2018-12-14T04:15:37.345Z,19.10
2018-12-14T04:16:37.327Z,19.90
2018-12-14T04:17:37.322Z,19.00
2018-12-14T04:18:37.308Z,19.70
2018-12-14T04:19:37.250Z,20.20
2018-12-14T04:20:37.269Z,20.40
2018-12-14T04:21:37.203Z,21.80
2018-12-14T04:22:37.187Z,21.50
2018-12-14T04:23:37.159Z,20.40
2018-12-14T04:24:37.150Z,21.60
2018-12-14T04:25:37.113Z,20.80
2018-12-14T04:26:37.085Z,20.90
2018-12-14T04:27:37.063Z,21.00
2018-12-14T04:28:37.043Z,20.60
2018-12-14T04:29:37.037Z,22.20
2018-12-14T04:30:36.994Z,23.00
2018-12-14T04:31:36.975Z,21.40
2018-12-14T04:32:36.946Z,20.70
2018-12-14T04:33:36.964Z,20.70
2018-12-14T04:34:36.957Z,20.80
2018-12-14T04:35:36.886Z,20.10
2018-12-14T04:36:36.870Z,19.10
2018-12-14T04:37:36.831Z,21.40
2018-12-14T04:38:36.821Z,20.80
2018-12-14T04:39:36.783Z,21.20
2018-12-14T04:40:36.760Z,22.20
2018-12-14T04:41:36.736Z,21.10
2018-12-14T04:42:36.713Z,20.50
2018-12-14T04:43:36.709Z,20.80
2018-12-14T04:44:36.670Z,21.30
2018-12-14T04:45:36.644Z,20.90
2018-12-14T04:46:36.635Z,20.80
2018-12-14T04:47:36.594Z,21.00
2018-12-14T04:48:36.570Z,21.30
2018-12-14T04:49:36.563Z,21.60
2018-12-14T04:50:36.533Z,20.30
2018-12-14T04:51:36.528Z,21.50
2018-12-14T04:52:36.484Z,21.00
2018-12-14T04:53:36.463Z,21.30
2018-12-14T04:54:36.437Z,21.60
2018-12-14T04:55:36.412Z,20.90
2018-12-14T04:56:36.380Z,19.80
2018-12-14T04:57:36.384Z,22.50
2018-12-14T04:58:36.332Z,20.20
2018-12-14T04:59:36.362Z,21.30
2018-12-14T05:00:36.351Z,20.20
2018-12-14T05:01:36.287Z,20.90
2018-12-14T05:02:36.245Z,21.00
2018-12-14T05:03:36.238Z,20.10
2018-12-14T05:04:36.200Z,20.20
2018-12-14T05:05:36.176Z,20.90
2018-12-14T05:06:36.150Z,21.40
2018-12-14T05:07:36.127Z,21.30
2018-12-14T05:08:36.102Z,20.50
2018-12-14T05:09:36.100Z,20.90
2018-12-14T05:10:36.053Z,19.50
2018-12-14T05:11:36.036Z,19.10
2018-12-14T05:12:36.022Z,20.40
2018-12-14T05:13:36.012Z,20.50
2018-12-14T05:14:35.964Z,20.90
2018-12-14T05:15:35.963Z,19.30
2018-12-14T05:16:35.929Z,19.60
2018-12-14T05:17:35.893Z,19.80
2018-12-14T05:18:35.869Z,20.30
2018-12-14T05:19:35.843Z,20.30
2018-12-14T05:20:35.818Z,20.70
2018-12-14T05:21:35.830Z,21.10
2018-12-14T05:22:35.794Z,21.40
2018-12-14T05:23:35.751Z,21.70
2018-12-14T05:24:35.728Z,21.60
2018-12-14T05:25:35.771Z,20.40
2018-12-14T05:26:35.683Z,19.20
2018-12-14T05:27:35.661Z,19.40
2018-12-14T05:28:35.652Z,20.80
2018-12-14T05:29:35.613Z,19.90
2018-12-14T05:30:35.585Z,21.80
2018-12-14T05:31:35.561Z,21.00
2018-12-14T05:32:35.539Z,19.10
2018-12-14T05:33:35.536Z,19.30
2018-12-14T05:34:35.498Z,21.80
2018-12-14T05:35:35.489Z,19.50
2018-12-14T05:36:35.453Z,20.40
2018-12-14T05:37:35.425Z,19.50
2018-12-14T05:38:35.403Z,20.30
2018-12-14T05:39:35.384Z,20.30
2018-12-14T05:40:35.384Z,21.00
2018-12-14T05:41:35.334Z,21.30
2018-12-14T05:42:35.312Z,20.90
2018-12-14T05:43:35.301Z,20.50
2018-12-14T05:44:35.263Z,20.20
2018-12-14T05:45:35.260Z,21.70
2018-12-14T05:46:35.228Z,20.60
2018-12-14T05:47:35.198Z,21.60
2018-12-14T05:48:35.164Z,20.60
2018-12-14T05:49:35.145Z,19.30
2018-12-14T05:50:35.122Z,20.80
2018-12-14T05:51:35.117Z,21.70
2018-12-14T05:52:35.091Z,20.40
2018-12-14T05:53:35.068Z,20.00
2018-12-14T05:54:35.028Z,20.60
2018-12-14T05:55:35.007Z,20.90
2018-12-14T05:56:34.984Z,20.10
2018-12-14T05:57:34.960Z,19.70
2018-12-14T05:58:34.934Z,20.60
2018-12-14T05:59:34.936Z,21.30
2018-12-14T06:00:34.890Z,20.50
2018-12-14T06:01:34.867Z,22.20
2018-12-14T06:02:34.872Z,20.10
2018-12-14T06:03:34.819Z,20.10
2018-12-14T06:04:34.815Z,20.20
2018-12-14T06:05:34.772Z,19.50
2018-12-14T06:06:34.750Z,20.30
2018-12-14T06:07:34.727Z,20.60
2018-12-14T06:08:34.696Z,20.60
2018-12-14T06:09:34.677Z,20.60
2018-12-14T06:10:34.674Z,21.50
2018-12-14T06:11:34.630Z,20.30
2018-12-14T06:12:34.609Z,21.00
2018-12-14T06:13:34.587Z,19.50
2018-12-14T06:14:34.562Z,24.20
2018-12-14T06:15:34.559Z,20.70
2018-12-14T06:16:34.526Z,21.60
2018-12-14T06:17:34.496Z,21.90
2018-12-14T06:18:34.470Z,21.10
2018-12-14T06:19:34.448Z,21.40
2018-12-14T06:20:34.424Z,19.20
2018-12-14T06:21:34.416Z,21.80
2018-12-14T06:22:34.377Z,20.10
2018-12-14T06:23:34.416Z,20.00
2018-12-14T06:24:34.333Z,21.70
2018-12-14T06:25:34.307Z,20.50
2018-12-14T06:26:34.299Z,21.00
2018-12-14T06:27:34.257Z,22.40
2018-12-14T06:28:34.237Z,20.60
2018-12-14T06:29:34.215Z,22.30
2018-12-14T06:30:34.185Z,22.10
2018-12-14T06:31:34.165Z,21.70
2018-12-14T06:32:34.174Z,21.60
2018-12-14T06:33:34.123Z,23.00
2018-12-14T06:34:34.096Z,23.00
2018-12-14T06:35:34.085Z,22.90
2018-12-14T06:36:34.065Z,22.30
2018-12-14T06:37:34.029Z,23.00
2018-12-14T06:38:34.013Z,22.60
2018-12-14T06:39:33.992Z,23.20
2018-12-14T06:40:33.955Z,20.90
2018-12-14T06:41:33.933Z,21.70
2018-12-14T06:42:33.919Z,20.50
2018-12-14T06:43:33.889Z,21.10
2018-12-14T06:44:33.884Z,21.50
2018-12-14T06:45:33.840Z,21.30
2018-12-14T06:46:33.812Z,21.40
2018-12-14T06:47:33.799Z,19.10
2018-12-14T06:48:33.775Z,19.60
2018-12-14T06:49:33.746Z,20.50
2018-12-14T06:50:33.744Z,20.70
2018-12-14T06:51:33.702Z,21.00
2018-12-14T06:52:33.676Z,20.80
2018-12-14T06:53:33.654Z,20.20
2018-12-14T06:54:33.629Z,21.50
2018-12-14T06:55:33.609Z,19.80
2018-12-14T06:56:33.609Z,21.40
2018-12-14T06:57:33.570Z,22.00
2018-12-14T06:58:33.539Z,21.60
2018-12-14T06:59:33.527Z,20.90
2018-12-14T07:00:33.489Z,22.70
2018-12-14T07:01:33.465Z,21.50
2018-12-14T07:02:33.442Z,21.90
2018-12-14T07:03:33.419Z,22.10
2018-12-14T07:04:33.413Z,20.90
